sensor_id;sensor_type;location;lat;lon;timestamp;P1;durP1;ratioP1;P2;durP2;ratioP2
65904;SDS011;56275;49.802;24.020;2022-09-30T00:00:30;4.55;;;2.67;;
65904;SDS011;56275;49.802;24.020;2022-09-30T00:03:22;6.68;;;3.10;;
65904;SDS011;56275;49.802;24.020;2022-09-30T00:06:07;4.97;;;3.15;;
65904;SDS011;56275;49.802;24.020;2022-09-30T00:09:00;5.50;;;3.35;;
65904;SDS011;56275;49.802;24.020;2022-09-30T00:11:46;4.38;;;2.85;;
65904;SDS011;56275;49.802;24.020;2022-09-30T00:14:31;3.95;;;2.72;;
65904;SDS011;56275;49.802;24.020;2022-09-30T00:17:16;4.15;;;2.60;;
65904;SDS011;56275;49.802;24.020;2022-09-30T00:20:02;4.07;;;2.97;;
65904;SDS011;56275;49.802;24.020;2022-09-30T00:22:48;4.22;;;2.45;;
65904;SDS011;56275;49.802;24.020;2022-09-30T00:25:33;4.85;;;2.95;;
65904;SDS011;56275;49.802;24.020;2022-09-30T00:28:18;6.40;;;3.00;;
65904;SDS011;56275;49.802;24.020;2022-09-30T00:31:05;3.95;;;2.40;;
65904;SDS011;56275;49.802;24.020;2022-09-30T00:33:53;3.60;;;2.67;;
65904;SDS011;56275;49.802;24.020;2022-09-30T00:36:51;5.20;;;2.50;;
65904;SDS011;56275;49.802;24.020;2022-09-30T00:39:44;3.22;;;2.25;;
65904;SDS011;56275;49.802;24.020;2022-09-30T00:42:29;5.40;;;2.58;;
65904;SDS011;56275;49.802;24.020;2022-09-30T00:45:14;5.38;;;2.67;;
65904;SDS011;56275;49.802;24.020;2022-09-30T00:48:09;5.10;;;2.78;;
65904;SDS011;56275;49.802;24.020;2022-09-30T00:50:58;5.05;;;2.80;;
65904;SDS011;56275;49.802;24.020;2022-09-30T00:53:47;3.20;;;2.25;;
65904;SDS011;56275;49.802;24.020;2022-09-30T00:56:40;4.82;;;2.80;;
65904;SDS011;56275;49.802;24.020;2022-09-30T00:59:33;4.80;;;2.97;;
65904;SDS011;56275;49.802;24.020;2022-09-30T01:02:28;3.63;;;2.55;;
65904;SDS011;56275;49.802;24.020;2022-09-30T01:05:13;4.80;;;3.03;;
65904;SDS011;56275;49.802;24.020;2022-09-30T01:08:05;3.42;;;2.17;;
65904;SDS011;56275;49.802;24.020;2022-09-30T01:10:53;5.82;;;2.47;;
65904;SDS011;56275;49.802;24.020;2022-09-30T01:13:46;4.40;;;2.60;;
65904;SDS011;56275;49.802;24.020;2022-09-30T01:16:52;2.72;;;2.17;;
65904;SDS011;56275;49.802;24.020;2022-09-30T01:32:24;3.33;;;2.17;;
65904;SDS011;56275;49.802;24.020;2022-09-30T01:39:11;3.40;;;2.30;;
65904;SDS011;56275;49.802;24.020;2022-09-30T01:41:51;2.38;;;1.95;;
65904;SDS011;56275;49.802;24.020;2022-09-30T01:54:00;4.28;;;2.40;;
65904;SDS011;56275;49.802;24.020;2022-09-30T01:57:10;3.85;;;2.33;;
65904;SDS011;56275;49.802;24.020;2022-09-30T01:59:58;4.40;;;2.33;;
65904;SDS011;56275;49.802;24.020;2022-09-30T02:03:10;3.70;;;2.40;;
65904;SDS011;56275;49.802;24.020;2022-09-30T02:06:24;4.30;;;2.33;;
65904;SDS011;56275;49.802;24.020;2022-09-30T02:09:25;3.90;;;2.17;;
65904;SDS011;56275;49.802;24.020;2022-09-30T02:12:31;5.15;;;2.58;;
65904;SDS011;56275;49.802;24.020;2022-09-30T02:15:21;3.70;;;2.35;;
65904;SDS011;56275;49.802;24.020;2022-09-30T02:18:21;5.70;;;2.00;;
65904;SDS011;56275;49.802;24.020;2022-09-30T02:21:14;3.47;;;1.90;;
65904;SDS011;56275;49.802;24.020;2022-09-30T02:24:06;3.53;;;2.40;;
65904;SDS011;56275;49.802;24.020;2022-09-30T02:26:57;4.43;;;2.63;;
65904;SDS011;56275;49.802;24.020;2022-09-30T02:29:54;5.40;;;2.55;;
65904;SDS011;56275;49.802;24.020;2022-09-30T02:32:50;3.03;;;1.95;;
65904;SDS011;56275;49.802;24.020;2022-09-30T02:35:44;3.47;;;2.58;;
65904;SDS011;56275;49.802;24.020;2022-09-30T02:38:39;2.95;;;2.17;;
65904;SDS011;56275;49.802;24.020;2022-09-30T02:41:28;4.43;;;1.70;;
65904;SDS011;56275;49.802;24.020;2022-09-30T02:44:27;3.28;;;1.65;;
65904;SDS011;56275;49.802;24.020;2022-09-30T03:00:02;3.97;;;2.20;;
65904;SDS011;56275;49.802;24.020;2022-09-30T03:02:48;2.33;;;1.77;;
65904;SDS011;56275;49.802;24.020;2022-09-30T03:05:38;2.30;;;1.75;;
65904;SDS011;56275;49.802;24.020;2022-09-30T03:08:23;2.83;;;2.00;;
65904;SDS011;56275;49.802;24.020;2022-09-30T03:11:42;4.85;;;2.33;;
65904;SDS011;56275;49.802;24.020;2022-09-30T03:14:41;3.03;;;1.92;;
65904;SDS011;56275;49.802;24.020;2022-09-30T03:21:07;3.08;;;1.98;;
65904;SDS011;56275;49.802;24.020;2022-09-30T03:27:44;2.60;;;1.63;;
65904;SDS011;56275;49.802;24.020;2022-09-30T03:33:54;2.78;;;2.08;;
65904;SDS011;56275;49.802;24.020;2022-09-30T03:39:51;2.50;;;1.80;;
65904;SDS011;56275;49.802;24.020;2022-09-30T03:42:50;3.58;;;2.20;;
65904;SDS011;56275;49.802;24.020;2022-09-30T03:46:02;2.33;;;1.63;;
65904;SDS011;56275;49.802;24.020;2022-09-30T03:48:59;3.40;;;2.33;;
65904;SDS011;56275;49.802;24.020;2022-09-30T03:51:48;3.30;;;2.08;;
65904;SDS011;56275;49.802;24.020;2022-09-30T03:54:55;2.65;;;1.95;;
65904;SDS011;56275;49.802;24.020;2022-09-30T03:57:49;2.90;;;1.77;;
65904;SDS011;56275;49.802;24.020;2022-09-30T04:00:44;2.63;;;1.80;;
65904;SDS011;56275;49.802;24.020;2022-09-30T04:03:39;2.40;;;1.63;;
65904;SDS011;56275;49.802;24.020;2022-09-30T04:06:31;2.42;;;1.40;;
65904;SDS011;56275;49.802;24.020;2022-09-30T04:09:16;4.32;;;2.08;;
65904;SDS011;56275;49.802;24.020;2022-09-30T04:12:07;2.78;;;1.95;;
65904;SDS011;56275;49.802;24.020;2022-09-30T04:14:52;3.47;;;2.30;;
65904;SDS011;56275;49.802;24.020;2022-09-30T04:17:37;2.25;;;1.73;;
65904;SDS011;56275;49.802;24.020;2022-09-30T04:20:22;2.72;;;1.90;;
65904;SDS011;56275;49.802;24.020;2022-09-30T04:23:14;3.55;;;2.00;;
65904;SDS011;56275;49.802;24.020;2022-09-30T04:26:00;3.35;;;2.17;;
65904;SDS011;56275;49.802;24.020;2022-09-30T04:28:46;2.95;;;1.92;;
65904;SDS011;56275;49.802;24.020;2022-09-30T04:31:37;3.13;;;1.92;;
65904;SDS011;56275;49.802;24.020;2022-09-30T04:34:28;2.80;;;2.00;;
65904;SDS011;56275;49.802;24.020;2022-09-30T04:37:14;3.72;;;2.22;;
65904;SDS011;56275;49.802;24.020;2022-09-30T04:40:06;3.45;;;2.35;;
65904;SDS011;56275;49.802;24.020;2022-09-30T04:42:54;3.28;;;1.77;;
65904;SDS011;56275;49.802;24.020;2022-09-30T04:45:44;2.97;;;1.95;;
65904;SDS011;56275;49.802;24.020;2022-09-30T04:48:29;2.53;;;1.80;;
65904;SDS011;56275;49.802;24.020;2022-09-30T04:51:21;2.63;;;1.75;;
65904;SDS011;56275;49.802;24.020;2022-09-30T04:54:07;3.28;;;2.38;;
65904;SDS011;56275;49.802;24.020;2022-09-30T04:56:52;2.13;;;1.60;;
65904;SDS011;56275;49.802;24.020;2022-09-30T04:59:37;3.22;;;2.20;;
65904;SDS011;56275;49.802;24.020;2022-09-30T05:02:22;3.15;;;2.00;;
65904;SDS011;56275;49.802;24.020;2022-09-30T05:05:14;2.70;;;1.92;;
65904;SDS011;56275;49.802;24.020;2022-09-30T05:08:05;2.85;;;1.83;;
65904;SDS011;56275;49.802;24.020;2022-09-30T05:10:57;2.50;;;1.85;;
65904;SDS011;56275;49.802;24.020;2022-09-30T05:13:44;3.15;;;2.00;;
65904;SDS011;56275;49.802;24.020;2022-09-30T05:16:36;2.83;;;1.90;;
65904;SDS011;56275;49.802;24.020;2022-09-30T05:19:28;2.75;;;1.77;;
65904;SDS011;56275;49.802;24.020;2022-09-30T05:22:19;3.30;;;2.00;;
65904;SDS011;56275;49.802;24.020;2022-09-30T05:25:12;2.42;;;1.90;;
65904;SDS011;56275;49.802;24.020;2022-09-30T05:28:03;3.25;;;1.90;;
65904;SDS011;56275;49.802;24.020;2022-09-30T05:30:55;3.90;;;2.72;;
65904;SDS011;56275;49.802;24.020;2022-09-30T05:33:49;3.20;;;2.15;;
65904;SDS011;56275;49.802;24.020;2022-09-30T05:36:34;2.95;;;2.00;;
65904;SDS011;56275;49.802;24.020;2022-09-30T05:39:19;3.72;;;2.25;;
65904;SDS011;56275;49.802;24.020;2022-09-30T05:42:05;5.13;;;2.20;;
65904;SDS011;56275;49.802;24.020;2022-09-30T05:44:56;4.63;;;3.35;;
65904;SDS011;56275;49.802;24.020;2022-09-30T05:47:51;2.83;;;2.00;;
65904;SDS011;56275;49.802;24.020;2022-09-30T05:50:43;3.45;;;2.38;;
65904;SDS011;56275;49.802;24.020;2022-09-30T05:53:37;3.47;;;2.15;;
65904;SDS011;56275;49.802;24.020;2022-09-30T05:56:23;3.95;;;2.25;;
65904;SDS011;56275;49.802;24.020;2022-09-30T05:59:09;3.90;;;2.42;;
65904;SDS011;56275;49.802;24.020;2022-09-30T06:02:01;3.90;;;2.22;;
65904;SDS011;56275;49.802;24.020;2022-09-30T06:04:46;3.47;;;2.33;;
65904;SDS011;56275;49.802;24.020;2022-09-30T06:07:32;3.90;;;2.50;;
65904;SDS011;56275;49.802;24.020;2022-09-30T06:10:24;4.05;;;2.17;;
65904;SDS011;56275;49.802;24.020;2022-09-30T06:13:16;3.95;;;2.55;;
65904;SDS011;56275;49.802;24.020;2022-09-30T06:16:10;3.10;;;2.17;;
65904;SDS011;56275;49.802;24.020;2022-09-30T06:19:02;4.93;;;2.40;;
65904;SDS011;56275;49.802;24.020;2022-09-30T06:21:56;4.88;;;2.88;;
65904;SDS011;56275;49.802;24.020;2022-09-30T06:24:47;4.10;;;2.72;;
65904;SDS011;56275;49.802;24.020;2022-09-30T06:27:38;4.30;;;3.08;;
65904;SDS011;56275;49.802;24.020;2022-09-30T06:30:33;6.00;;;3.00;;
65904;SDS011;56275;49.802;24.020;2022-09-30T06:33:24;5.10;;;3.17;;
65904;SDS011;56275;49.802;24.020;2022-09-30T06:36:17;5.40;;;3.08;;
65904;SDS011;56275;49.802;24.020;2022-09-30T06:39:08;6.57;;;3.97;;
65904;SDS011;56275;49.802;24.020;2022-09-30T06:41:59;6.65;;;3.50;;
65904;SDS011;56275;49.802;24.020;2022-09-30T06:44:50;8.18;;;4.03;;
65904;SDS011;56275;49.802;24.020;2022-09-30T06:47:41;6.97;;;3.83;;
65904;SDS011;56275;49.802;24.020;2022-09-30T06:50:32;5.35;;;3.30;;
65904;SDS011;56275;49.802;24.020;2022-09-30T06:53:24;5.75;;;3.83;;
65904;SDS011;56275;49.802;24.020;2022-09-30T06:56:16;7.70;;;3.15;;
65904;SDS011;56275;49.802;24.020;2022-09-30T06:59:08;6.97;;;3.65;;
65904;SDS011;56275;49.802;24.020;2022-09-30T07:02:00;7.90;;;3.85;;
65904;SDS011;56275;49.802;24.020;2022-09-30T07:04:52;8.75;;;4.20;;
65904;SDS011;56275;49.802;24.020;2022-09-30T07:07:44;8.48;;;4.18;;
65904;SDS011;56275;49.802;24.020;2022-09-30T07:10:36;9.38;;;3.92;;
65904;SDS011;56275;49.802;24.020;2022-09-30T07:13:28;5.85;;;3.35;;
65904;SDS011;56275;49.802;24.020;2022-09-30T07:16:20;5.93;;;3.25;;
65904;SDS011;56275;49.802;24.020;2022-09-30T07:19:11;7.35;;;3.47;;
65904;SDS011;56275;49.802;24.020;2022-09-30T07:22:03;8.27;;;3.55;;
65904;SDS011;56275;49.802;24.020;2022-09-30T07:25:13;11.50;;;5.65;;
65904;SDS011;56275;49.802;24.020;2022-09-30T07:28:06;10.48;;;5.15;;
65904;SDS011;56275;49.802;24.020;2022-09-30T07:30:58;16.13;;;6.38;;
65904;SDS011;56275;49.802;24.020;2022-09-30T07:33:52;14.35;;;6.07;;
65904;SDS011;56275;49.802;24.020;2022-09-30T07:36:45;15.15;;;6.10;;
65904;SDS011;56275;49.802;24.020;2022-09-30T07:39:39;12.77;;;6.63;;
65904;SDS011;56275;49.802;24.020;2022-09-30T07:42:35;15.13;;;6.35;;
65904;SDS011;56275;49.802;24.020;2022-09-30T07:45:29;11.32;;;5.80;;
65904;SDS011;56275;49.802;24.020;2022-09-30T07:48:20;13.20;;;6.38;;
65904;SDS011;56275;49.802;24.020;2022-09-30T07:51:35;10.80;;;5.93;;
65904;SDS011;56275;49.802;24.020;2022-09-30T07:54:29;11.35;;;5.30;;
65904;SDS011;56275;49.802;24.020;2022-09-30T07:57:22;10.73;;;6.68;;
65904;SDS011;56275;49.802;24.020;2022-09-30T08:00:13;8.80;;;5.05;;
65904;SDS011;56275;49.802;24.020;2022-09-30T08:03:05;9.90;;;5.07;;
65904;SDS011;56275;49.802;24.020;2022-09-30T08:06:01;6.50;;;3.65;;
65904;SDS011;56275;49.802;24.020;2022-09-30T08:08:57;9.13;;;4.97;;
65904;SDS011;56275;49.802;24.020;2022-09-30T08:11:52;9.90;;;4.95;;
65904;SDS011;56275;49.802;24.020;2022-09-30T08:14:49;10.43;;;5.10;;
65904;SDS011;56275;49.802;24.020;2022-09-30T08:17:41;7.82;;;4.53;;
65904;SDS011;56275;49.802;24.020;2022-09-30T08:20:32;8.05;;;4.70;;
65904;SDS011;56275;49.802;24.020;2022-09-30T08:23:24;5.90;;;4.15;;
65904;SDS011;56275;49.802;24.020;2022-09-30T08:26:18;7.55;;;4.45;;
65904;SDS011;56275;49.802;24.020;2022-09-30T08:29:09;11.05;;;5.43;;
65904;SDS011;56275;49.802;24.020;2022-09-30T08:32:02;8.40;;;4.32;;
65904;SDS011;56275;49.802;24.020;2022-09-30T08:34:54;6.53;;;4.57;;
65904;SDS011;56275;49.802;24.020;2022-09-30T08:37:45;6.70;;;4.57;;
65904;SDS011;56275;49.802;24.020;2022-09-30T08:40:38;9.52;;;4.35;;
65904;SDS011;56275;49.802;24.020;2022-09-30T08:44:08;5.27;;;3.63;;
65904;SDS011;56275;49.802;24.020;2022-09-30T08:53:12;4.35;;;3.53;;
65904;SDS011;56275;49.802;24.020;2022-09-30T08:56:22;3.95;;;2.80;;
65904;SDS011;56275;49.802;24.020;2022-09-30T09:02:43;3.85;;;2.90;;
65904;SDS011;56275;49.802;24.020;2022-09-30T09:21:52;6.18;;;3.70;;
65904;SDS011;56275;49.802;24.020;2022-09-30T09:24:48;6.45;;;3.53;;
65904;SDS011;56275;49.802;24.020;2022-09-30T09:30:50;4.55;;;3.28;;
65904;SDS011;56275;49.802;24.020;2022-09-30T09:33:46;3.88;;;3.13;;
65904;SDS011;56275;49.802;24.020;2022-09-30T09:40:11;5.10;;;3.58;;
65904;SDS011;56275;49.802;24.020;2022-09-30T09:43:32;5.13;;;3.60;;
65904;SDS011;56275;49.802;24.020;2022-09-30T09:46:38;4.60;;;3.20;;
65904;SDS011;56275;49.802;24.020;2022-09-30T09:49:36;3.65;;;2.75;;
65904;SDS011;56275;49.802;24.020;2022-09-30T09:55:49;4.28;;;3.05;;
65904;SDS011;56275;49.802;24.020;2022-09-30T09:59:06;4.70;;;2.88;;
65904;SDS011;56275;49.802;24.020;2022-09-30T10:01:58;4.45;;;3.05;;
65904;SDS011;56275;49.802;24.020;2022-09-30T10:04:51;3.10;;;2.80;;
65904;SDS011;56275;49.802;24.020;2022-09-30T10:08:09;4.40;;;3.10;;
65904;SDS011;56275;49.802;24.020;2022-09-30T10:11:16;3.15;;;2.67;;
65904;SDS011;56275;49.802;24.020;2022-09-30T10:14:19;4.82;;;3.13;;
65904;SDS011;56275;49.802;24.020;2022-09-30T10:17:21;4.90;;;3.60;;
65904;SDS011;56275;49.802;24.020;2022-09-30T10:20:28;4.85;;;3.28;;
65904;SDS011;56275;49.802;24.020;2022-09-30T10:23:27;4.80;;;3.15;;
65904;SDS011;56275;49.802;24.020;2022-09-30T10:26:27;5.53;;;3.03;;
65904;SDS011;56275;49.802;24.020;2022-09-30T10:29:29;3.90;;;3.20;;
65904;SDS011;56275;49.802;24.020;2022-09-30T10:32:22;5.13;;;3.17;;
65904;SDS011;56275;49.802;24.020;2022-09-30T10:35:19;3.92;;;2.55;;
65904;SDS011;56275;49.802;24.020;2022-09-30T10:38:12;5.38;;;2.85;;
65904;SDS011;56275;49.802;24.020;2022-09-30T10:41:03;4.93;;;3.00;;
65904;SDS011;56275;49.802;24.020;2022-09-30T10:43:56;4.55;;;3.00;;
65904;SDS011;56275;49.802;24.020;2022-09-30T10:46:51;4.03;;;3.38;;
65904;SDS011;56275;49.802;24.020;2022-09-30T10:49:49;6.53;;;3.00;;
65904;SDS011;56275;49.802;24.020;2022-09-30T10:53:25;4.10;;;3.55;;
65904;SDS011;56275;49.802;24.020;2022-09-30T10:56:07;3.67;;;3.05;;
65904;SDS011;56275;49.802;24.020;2022-09-30T10:58:58;5.13;;;3.15;;
65904;SDS011;56275;49.802;24.020;2022-09-30T11:01:54;4.03;;;2.80;;
65904;SDS011;56275;49.802;24.020;2022-09-30T11:04:52;3.80;;;3.25;;
65904;SDS011;56275;49.802;24.020;2022-09-30T11:11:10;4.50;;;3.10;;
65904;SDS011;56275;49.802;24.020;2022-09-30T11:20:44;7.10;;;3.35;;
65904;SDS011;56275;49.802;24.020;2022-09-30T11:23:45;4.28;;;3.33;;
65904;SDS011;56275;49.802;24.020;2022-09-30T11:27:02;4.10;;;2.88;;
65904;SDS011;56275;49.802;24.020;2022-09-30T11:45:37;5.05;;;3.75;;
65904;SDS011;56275;49.802;24.020;2022-09-30T11:58:11;4.38;;;3.47;;
65904;SDS011;56275;49.802;24.020;2022-09-30T12:01:13;5.68;;;4.15;;
65904;SDS011;56275;49.802;24.020;2022-09-30T12:07:10;7.28;;;3.75;;
65904;SDS011;56275;49.802;24.020;2022-09-30T12:10:35;4.55;;;3.70;;
65904;SDS011;56275;49.802;24.020;2022-09-30T12:13:31;4.65;;;3.60;;
65904;SDS011;56275;49.802;24.020;2022-09-30T12:16:28;4.78;;;3.17;;
65904;SDS011;56275;49.802;24.020;2022-09-30T12:19:25;6.20;;;4.03;;
65904;SDS011;56275;49.802;24.020;2022-09-30T12:22:37;5.82;;;4.03;;
65904;SDS011;56275;49.802;24.020;2022-09-30T12:25:38;5.35;;;3.78;;
65904;SDS011;56275;49.802;24.020;2022-09-30T12:28:36;5.70;;;3.58;;
65904;SDS011;56275;49.802;24.020;2022-09-30T12:41:01;4.60;;;3.50;;
65904;SDS011;56275;49.802;24.020;2022-09-30T12:47:16;4.15;;;3.25;;
65904;SDS011;56275;49.802;24.020;2022-09-30T12:50:23;4.97;;;3.65;;
65904;SDS011;56275;49.802;24.020;2022-09-30T12:53:32;5.50;;;3.42;;
65904;SDS011;56275;49.802;24.020;2022-09-30T12:56:28;3.88;;;3.33;;
65904;SDS011;56275;49.802;24.020;2022-09-30T12:59:26;4.22;;;3.30;;
65904;SDS011;56275;49.802;24.020;2022-09-30T13:02:30;4.53;;;3.45;;
65904;SDS011;56275;49.802;24.020;2022-09-30T13:11:30;5.22;;;3.60;;
65904;SDS011;56275;49.802;24.020;2022-09-30T13:14:34;3.97;;;3.13;;
65904;SDS011;56275;49.802;24.020;2022-09-30T13:17:29;5.97;;;3.45;;
65904;SDS011;56275;49.802;24.020;2022-09-30T13:23:53;5.05;;;3.50;;
65904;SDS011;56275;49.802;24.020;2022-09-30T13:26:45;4.05;;;3.05;;
65904;SDS011;56275;49.802;24.020;2022-09-30T13:29:55;3.03;;;2.55;;
65904;SDS011;56275;49.802;24.020;2022-09-30T13:35:49;4.32;;;3.08;;
65904;SDS011;56275;49.802;24.020;2022-09-30T13:38:41;3.42;;;2.80;;
65904;SDS011;56275;49.802;24.020;2022-09-30T13:41:33;3.60;;;2.58;;
65904;SDS011;56275;49.802;24.020;2022-09-30T13:44:31;4.63;;;3.53;;
65904;SDS011;56275;49.802;24.020;2022-09-30T13:47:28;3.90;;;2.95;;
65904;SDS011;56275;49.802;24.020;2022-09-30T13:50:49;4.50;;;3.05;;
65904;SDS011;56275;49.802;24.020;2022-09-30T13:53:50;4.00;;;2.63;;
65904;SDS011;56275;49.802;24.020;2022-09-30T13:56:39;3.95;;;2.67;;
65904;SDS011;56275;49.802;24.020;2022-09-30T14:03:00;3.78;;;2.88;;
65904;SDS011;56275;49.802;24.020;2022-09-30T14:06:16;4.72;;;3.13;;
65904;SDS011;56275;49.802;24.020;2022-09-30T14:09:31;4.68;;;3.25;;
65904;SDS011;56275;49.802;24.020;2022-09-30T14:16:05;3.25;;;2.55;;
65904;SDS011;56275;49.802;24.020;2022-09-30T14:22:36;4.82;;;3.28;;
65904;SDS011;56275;49.802;24.020;2022-09-30T14:25:32;4.00;;;2.83;;
65904;SDS011;56275;49.802;24.020;2022-09-30T14:28:34;3.53;;;2.95;;
65904;SDS011;56275;49.802;24.020;2022-09-30T14:31:44;3.67;;;3.10;;
65904;SDS011;56275;49.802;24.020;2022-09-30T14:38:50;4.20;;;3.15;;
65904;SDS011;56275;49.802;24.020;2022-09-30T14:41:49;4.28;;;3.22;;
65904;SDS011;56275;49.802;24.020;2022-09-30T14:44:43;3.92;;;2.97;;
65904;SDS011;56275;49.802;24.020;2022-09-30T14:47:36;4.03;;;3.30;;
65904;SDS011;56275;49.802;24.020;2022-09-30T14:50:34;4.60;;;2.83;;
65904;SDS011;56275;49.802;24.020;2022-09-30T14:53:32;4.97;;;2.85;;
65904;SDS011;56275;49.802;24.020;2022-09-30T14:56:27;5.10;;;3.55;;
65904;SDS011;56275;49.802;24.020;2022-09-30T14:59:24;4.50;;;3.50;;
65904;SDS011;56275;49.802;24.020;2022-09-30T15:02:18;3.70;;;3.10;;
65904;SDS011;56275;49.802;24.020;2022-09-30T15:05:10;4.03;;;3.15;;
65904;SDS011;56275;49.802;24.020;2022-09-30T15:08:11;4.20;;;2.95;;
65904;SDS011;56275;49.802;24.020;2022-09-30T15:11:18;3.90;;;2.92;;
65904;SDS011;56275;49.802;24.020;2022-09-30T15:17:15;4.43;;;2.72;;
65904;SDS011;56275;49.802;24.020;2022-09-30T15:23:30;4.80;;;3.30;;
65904;SDS011;56275;49.802;24.020;2022-09-30T15:26:25;3.47;;;2.83;;
65904;SDS011;56275;49.802;24.020;2022-09-30T15:29:17;4.10;;;3.20;;
65904;SDS011;56275;49.802;24.020;2022-09-30T15:32:13;3.45;;;2.65;;
65904;SDS011;56275;49.802;24.020;2022-09-30T15:35:14;4.38;;;3.05;;
65904;SDS011;56275;49.802;24.020;2022-09-30T15:41:13;3.42;;;2.70;;
65904;SDS011;56275;49.802;24.020;2022-09-30T15:44:04;4.40;;;3.30;;
65904;SDS011;56275;49.802;24.020;2022-09-30T15:47:07;4.38;;;3.03;;
65904;SDS011;56275;49.802;24.020;2022-09-30T15:49:59;4.40;;;2.92;;
65904;SDS011;56275;49.802;24.020;2022-09-30T15:52:52;3.50;;;2.58;;
65904;SDS011;56275;49.802;24.020;2022-09-30T15:55:46;3.78;;;3.05;;
65904;SDS011;56275;49.802;24.020;2022-09-30T16:01:46;4.43;;;3.10;;
65904;SDS011;56275;49.802;24.020;2022-09-30T16:04:48;4.63;;;3.13;;
65904;SDS011;56275;49.802;24.020;2022-09-30T16:07:40;2.60;;;2.25;;
65904;SDS011;56275;49.802;24.020;2022-09-30T16:10:33;3.42;;;2.85;;
65904;SDS011;56275;49.802;24.020;2022-09-30T16:13:27;5.88;;;3.53;;
65904;SDS011;56275;49.802;24.020;2022-09-30T16:16:21;3.03;;;2.40;;
65904;SDS011;56275;49.802;24.020;2022-09-30T16:19:16;4.63;;;3.13;;
65904;SDS011;56275;49.802;24.020;2022-09-30T16:22:26;3.22;;;2.60;;
65904;SDS011;56275;49.802;24.020;2022-09-30T16:25:30;3.42;;;2.70;;
65904;SDS011;56275;49.802;24.020;2022-09-30T16:28:22;4.13;;;3.03;;
65904;SDS011;56275;49.802;24.020;2022-09-30T16:31:13;3.55;;;3.03;;
65904;SDS011;56275;49.802;24.020;2022-09-30T16:34:08;3.72;;;3.05;;
65904;SDS011;56275;49.802;24.020;2022-09-30T16:37:12;3.78;;;2.83;;
65904;SDS011;56275;49.802;24.020;2022-09-30T16:40:13;3.85;;;2.80;;
65904;SDS011;56275;49.802;24.020;2022-09-30T16:43:16;3.20;;;2.65;;
65904;SDS011;56275;49.802;24.020;2022-09-30T16:46:07;3.28;;;2.65;;
65904;SDS011;56275;49.802;24.020;2022-09-30T16:49:00;3.20;;;2.55;;
65904;SDS011;56275;49.802;24.020;2022-09-30T16:52:04;3.25;;;2.33;;
65904;SDS011;56275;49.802;24.020;2022-09-30T16:54:55;3.13;;;2.42;;
65904;SDS011;56275;49.802;24.020;2022-09-30T16:57:46;2.72;;;2.45;;
65904;SDS011;56275;49.802;24.020;2022-09-30T17:00:40;3.08;;;2.50;;
65904;SDS011;56275;49.802;24.020;2022-09-30T17:03:34;3.55;;;2.80;;
65904;SDS011;56275;49.802;24.020;2022-09-30T17:06:26;3.88;;;2.50;;
65904;SDS011;56275;49.802;24.020;2022-09-30T17:09:20;3.83;;;2.90;;
65904;SDS011;56275;49.802;24.020;2022-09-30T17:12:12;3.17;;;2.38;;
65904;SDS011;56275;49.802;24.020;2022-09-30T17:15:04;3.75;;;3.00;;
65904;SDS011;56275;49.802;24.020;2022-09-30T17:17:56;3.88;;;2.72;;
65904;SDS011;56275;49.802;24.020;2022-09-30T17:20:48;4.70;;;2.92;;
65904;SDS011;56275;49.802;24.020;2022-09-30T17:23:42;5.05;;;3.28;;
65904;SDS011;56275;49.802;24.020;2022-09-30T17:26:33;4.28;;;2.80;;
65904;SDS011;56275;49.802;24.020;2022-09-30T17:29:26;3.58;;;2.60;;
65904;SDS011;56275;49.802;24.020;2022-09-30T17:32:17;3.50;;;2.83;;
65904;SDS011;56275;49.802;24.020;2022-09-30T17:35:08;3.85;;;2.63;;
65904;SDS011;56275;49.802;24.020;2022-09-30T17:38:00;3.92;;;3.03;;
65904;SDS011;56275;49.802;24.020;2022-09-30T17:40:57;3.60;;;2.50;;
65904;SDS011;56275;49.802;24.020;2022-09-30T17:44:07;3.33;;;2.60;;
65904;SDS011;56275;49.802;24.020;2022-09-30T17:47:00;3.20;;;2.63;;
65904;SDS011;56275;49.802;24.020;2022-09-30T17:49:52;3.08;;;2.35;;
65904;SDS011;56275;49.802;24.020;2022-09-30T17:52:44;3.72;;;2.33;;
65904;SDS011;56275;49.802;24.020;2022-09-30T17:55:36;3.63;;;2.47;;
65904;SDS011;56275;49.802;24.020;2022-09-30T17:58:27;3.58;;;2.50;;
65904;SDS011;56275;49.802;24.020;2022-09-30T18:01:19;2.90;;;2.40;;
65904;SDS011;56275;49.802;24.020;2022-09-30T18:04:11;2.97;;;2.42;;
65904;SDS011;56275;49.802;24.020;2022-09-30T18:07:02;3.53;;;2.63;;
65904;SDS011;56275;49.802;24.020;2022-09-30T18:09:57;4.13;;;2.85;;
65904;SDS011;56275;49.802;24.020;2022-09-30T18:12:49;4.50;;;2.88;;
65904;SDS011;56275;49.802;24.020;2022-09-30T18:15:43;4.47;;;2.95;;
65904;SDS011;56275;49.802;24.020;2022-09-30T18:18:35;4.00;;;3.35;;
65904;SDS011;56275;49.802;24.020;2022-09-30T18:21:27;3.30;;;2.55;;
65904;SDS011;56275;49.802;24.020;2022-09-30T18:24:19;3.67;;;2.72;;
65904;SDS011;56275;49.802;24.020;2022-09-30T18:27:31;3.28;;;2.38;;
65904;SDS011;56275;49.802;24.020;2022-09-30T18:30:25;3.20;;;2.40;;
65904;SDS011;56275;49.802;24.020;2022-09-30T18:33:16;3.17;;;2.13;;
65904;SDS011;56275;49.802;24.020;2022-09-30T18:36:10;2.97;;;2.45;;
65904;SDS011;56275;49.802;24.020;2022-09-30T18:39:03;2.55;;;2.03;;
65904;SDS011;56275;49.802;24.020;2022-09-30T18:41:55;3.03;;;2.63;;
65904;SDS011;56275;49.802;24.020;2022-09-30T18:44:47;3.10;;;2.20;;
65904;SDS011;56275;49.802;24.020;2022-09-30T18:47:43;2.67;;;2.10;;
65904;SDS011;56275;49.802;24.020;2022-09-30T18:50:35;2.92;;;2.17;;
65904;SDS011;56275;49.802;24.020;2022-09-30T18:53:26;3.53;;;2.95;;
65904;SDS011;56275;49.802;24.020;2022-09-30T18:56:17;4.25;;;2.60;;
65904;SDS011;56275;49.802;24.020;2022-09-30T18:59:12;3.28;;;2.55;;
65904;SDS011;56275;49.802;24.020;2022-09-30T19:02:05;5.35;;;2.58;;
65904;SDS011;56275;49.802;24.020;2022-09-30T19:04:57;3.20;;;2.30;;
65904;SDS011;56275;49.802;24.020;2022-09-30T19:07:48;3.30;;;2.72;;
65904;SDS011;56275;49.802;24.020;2022-09-30T19:10:42;3.28;;;2.53;;
65904;SDS011;56275;49.802;24.020;2022-09-30T19:13:35;3.88;;;2.90;;
65904;SDS011;56275;49.802;24.020;2022-09-30T19:16:27;2.17;;;1.75;;
65904;SDS011;56275;49.802;24.020;2022-09-30T19:19:21;2.72;;;2.00;;
65904;SDS011;56275;49.802;24.020;2022-09-30T19:22:13;3.38;;;2.35;;
65904;SDS011;56275;49.802;24.020;2022-09-30T19:25:04;3.30;;;3.00;;
65904;SDS011;56275;49.802;24.020;2022-09-30T19:27:57;3.78;;;2.97;;
65904;SDS011;56275;49.802;24.020;2022-09-30T19:30:49;3.92;;;2.63;;
65904;SDS011;56275;49.802;24.020;2022-09-30T19:33:41;3.47;;;2.63;;
65904;SDS011;56275;49.802;24.020;2022-09-30T19:36:36;3.88;;;3.05;;
65904;SDS011;56275;49.802;24.020;2022-09-30T19:39:30;3.25;;;2.55;;
65904;SDS011;56275;49.802;24.020;2022-09-30T19:42:22;4.40;;;2.53;;
65904;SDS011;56275;49.802;24.020;2022-09-30T19:45:14;3.50;;;2.65;;
65904;SDS011;56275;49.802;24.020;2022-09-30T19:48:05;2.65;;;2.15;;
65904;SDS011;56275;49.802;24.020;2022-09-30T19:50:58;4.32;;;2.75;;
65904;SDS011;56275;49.802;24.020;2022-09-30T19:54:06;2.78;;;2.30;;
65904;SDS011;56275;49.802;24.020;2022-09-30T19:56:58;3.15;;;2.28;;
65904;SDS011;56275;49.802;24.020;2022-09-30T19:59:50;4.72;;;2.35;;
65904;SDS011;56275;49.802;24.020;2022-09-30T20:02:42;2.30;;;2.10;;
65904;SDS011;56275;49.802;24.020;2022-09-30T20:05:33;3.50;;;2.30;;
65904;SDS011;56275;49.802;24.020;2022-09-30T20:08:26;2.65;;;2.03;;
65904;SDS011;56275;49.802;24.020;2022-09-30T20:11:20;2.70;;;2.13;;
65904;SDS011;56275;49.802;24.020;2022-09-30T20:14:12;3.30;;;2.28;;